Jj Sky — VRJA6 — position and weather

sailwx.info

Track history (hours):
 
Tides and Currents Weather Stations Pressure Air Temp Water Temp Dewpoint Dewpoint Depression Visibility Wind Speed Wind Dir Waves Ship Positions

Jj Sky

Last reported at 2016-May-24 06:21 UTC. Time now 2016-May-26 10:43 UTC.
Position N 34°35' E 134°53'.

Length 148 m; draft 7 m.

Type: Ship (hazmat cat D). MMSI: 477397500.

Date/timePositionNaut miles runAvg speedWind from/ knotsBaromVisibWave heightAir tempDewpointWater temp
2016-May-24 06:21N 34°35' E 134°53'911.5
2016-May-24 05:33N 34°36' E 135°04'9 9.1
2016-May-24 04:33N 34°39' E 135°15'0 0.0
2016-May-24 03:16N 34°39' E 135°15'0 0.0
2016-May-24 02:09N 34°39' E 135°15'0 0.0
2016-May-24 01:33N 34°39' E 135°15'0 0.0
2016-May-23 23:32N 34°39' E 135°15'0 0.0
2016-May-23 22:14N 34°39' E 135°15'5 7.1
2016-May-23 21:33N 34°38' E 135°20'3 2.6
2016-May-23 20:15N 34°39' E 135°24'0 0.0
2016-May-23 19:09N 34°39' E 135°24'0 0.0
2016-May-23 18:34N 34°39' E 135°24'0 0.0
2016-May-23 17:33N 34°39' E 135°24'0 0.0
2016-May-23 16:27N 34°39' E 135°24'0 0.0
2016-May-23 15:26N 34°39' E 135°24'0 0.1
2016-May-23 14:32N 34°39' E 135°24'0 0.1
2016-May-23 13:13N 34°39' E 135°24'0 0.0
2016-May-23 12:25N 34°39' E 135°24'0 0.0
2016-May-23 11:30N 34°39' E 135°24'0 0.0
2016-May-23 10:12N 34°39' E 135°24'0 0.0
2016-May-23 09:11N 34°39' E 135°24'0 0.0
2016-May-23 07:05N 34°39' E 135°24'0 0.0
2016-May-23 06:13N 34°39' E 135°24'0 0.0
2016-May-23 05:31N 34°39' E 135°24'0 0.0
2016-May-23 04:31N 34°39' E 135°24'0 0.0
2016-May-23 03:30N 34°39' E 135°24'0 0.0
2016-May-23 02:30N 34°39' E 135°24'0 0.0
2016-May-23 01:24N 34°39' E 135°24'0 0.0
2016-May-23 00:26N 34°39' E 135°24'0 0.0
2016-May-22 23:17N 34°39' E 135°24'0 0.0
2016-May-22 22:29N 34°39' E 135°24'2 2.2
2016-May-22 21:33N 34°38' E 135°22'10 9.8
2016-May-22 20:32N 34°35' E 135°11'1111.3
2016-May-22 19:34N 34°37' E 134°58'69413.6
2016-May-20 16:31N 31°19' E 121°44'3 0.2
2016-May-20 04:32N 31°20' E 121°41'1511.6
2016-May-20 03:14N 31°09' E 121°54'  
2016-May-17 06:32N 34°36' E 134°54'1414.5
2016-May-17 05:33N 34°36' E 135°11'4 1.8
2016-May-17 03:16N 34°39' E 135°15'0 0.0
2016-May-17 02:04N 34°39' E 135°15'0 0.0
2016-May-17 01:28N 34°39' E 135°15'0 0.0
2016-May-17 00:27N 34°39' E 135°15'0 0.0
2016-May-16 23:33N 34°39' E 135°15'0 0.0
2016-May-16 22:33N 34°39' E 135°15'4 4.3
2016-May-16 21:33N 34°38' E 135°20'4 3.7
2016-May-16 20:31N 34°39' E 135°24'0 0.0
2016-May-16 19:24N 34°39' E 135°24'0 0.0
2016-May-16 18:25N 34°39' E 135°24'0 0.0
2016-May-16 17:28N 34°39' E 135°24'0 0.0
2016-May-16 16:33N 34°39' E 135°24'0 0.0
2016-May-16 15:33N 34°39' E 135°24'0 0.1
2016-May-16 14:31N 34°39' E 135°24'0 0.1
2016-May-16 13:29N 34°39' E 135°24'0 0.0
2016-May-16 12:22N 34°39' E 135°24'0 0.0
2016-May-16 11:28N 34°39' E 135°24'0 0.0
2016-May-16 10:28N 34°39' E 135°24'0 0.0
2016-May-16 09:27N 34°39' E 135°24'0 0.0
2016-May-16 08:27N 34°39' E 135°24'0 0.0
2016-May-16 07:26N 34°39' E 135°24'0 0.0
2016-May-16 06:26N 34°39' E 135°24'0 0.0
2016-May-16 04:25N 34°39' E 135°24'0 0.1
2016-May-16 03:25N 34°39' E 135°24'0 0.1
2016-May-16 02:28N 34°39' E 135°24'0 0.1
2016-May-16 01:28N 34°39' E 135°24'0 0.0
2016-May-16 00:27N 34°39' E 135°24'0 0.0
2016-May-15 23:27N 34°39' E 135°24'0 0.0
2016-May-15 22:14N 34°39' E 135°24'2 2.7
2016-May-15 21:33N 34°38' E 135°23'1413.8
2016-May-15 20:33N 34°28' E 135°11'1514.7
2016-May-15 19:33N 34°17' E 134°59'1514.8
2016-May-15 18:33N 34°03' E 134°56'  
Track history (hours):
 
Tides and Currents Weather Stations Pressure Air Temp Water Temp Dewpoint Dewpoint Depression Visibility Wind Speed Wind Dir Waves Ship Positions

Jj Sky

Last reported at 2016-May-24 06:21 UTC. Time now 2016-May-26 10:43 UTC.
Position N 34°35' E 134°53'.

Length 148 m; draft 7 m.

Type: Ship (hazmat cat D). MMSI: 477397500.

Date/timePositionNaut miles runAvg speedWind from/ knotsBaromVisibWave heightAir tempDewpointWater temp
2016-May-24 06:21N 34°35' E 134°53'911.5
2016-May-24 05:33N 34°36' E 135°04'9 9.1
2016-May-24 04:33N 34°39' E 135°15'0 0.0
2016-May-24 03:16N 34°39' E 135°15'0 0.0
2016-May-24 02:09N 34°39' E 135°15'0 0.0
2016-May-24 01:33N 34°39' E 135°15'0 0.0
2016-May-23 23:32N 34°39' E 135°15'0 0.0
2016-May-23 22:14N 34°39' E 135°15'5 7.1
2016-May-23 21:33N 34°38' E 135°20'3 2.6
2016-May-23 20:15N 34°39' E 135°24'0 0.0
2016-May-23 19:09N 34°39' E 135°24'0 0.0
2016-May-23 18:34N 34°39' E 135°24'0 0.0
2016-May-23 17:33N 34°39' E 135°24'0 0.0
2016-May-23 16:27N 34°39' E 135°24'0 0.0
2016-May-23 15:26N 34°39' E 135°24'0 0.1
2016-May-23 14:32N 34°39' E 135°24'0 0.1
2016-May-23 13:13N 34°39' E 135°24'0 0.0
2016-May-23 12:25N 34°39' E 135°24'0 0.0
2016-May-23 11:30N 34°39' E 135°24'0 0.0
2016-May-23 10:12N 34°39' E 135°24'0 0.0
2016-May-23 09:11N 34°39' E 135°24'0 0.0
2016-May-23 07:05N 34°39' E 135°24'0 0.0
2016-May-23 06:13N 34°39' E 135°24'0 0.0
2016-May-23 05:31N 34°39' E 135°24'0 0.0
2016-May-23 04:31N 34°39' E 135°24'0 0.0
2016-May-23 03:30N 34°39' E 135°24'0 0.0
2016-May-23 02:30N 34°39' E 135°24'0 0.0
2016-May-23 01:24N 34°39' E 135°24'0 0.0
2016-May-23 00:26N 34°39' E 135°24'0 0.0
2016-May-22 23:17N 34°39' E 135°24'0 0.0
2016-May-22 22:29N 34°39' E 135°24'2 2.2
2016-May-22 21:33N 34°38' E 135°22'10 9.8
2016-May-22 20:32N 34°35' E 135°11'1111.3
2016-May-22 19:34N 34°37' E 134°58'69413.6
2016-May-20 16:31N 31°19' E 121°44'3 0.2
2016-May-20 04:32N 31°20' E 121°41'1511.6
2016-May-20 03:14N 31°09' E 121°54'  
2016-May-17 06:32N 34°36' E 134°54'1414.5
2016-May-17 05:33N 34°36' E 135°11'4 1.8
2016-May-17 03:16N 34°39' E 135°15'0 0.0
2016-May-17 02:04N 34°39' E 135°15'0 0.0
2016-May-17 01:28N 34°39' E 135°15'0 0.0
2016-May-17 00:27N 34°39' E 135°15'0 0.0
2016-May-16 23:33N 34°39' E 135°15'0 0.0
2016-May-16 22:33N 34°39' E 135°15'4 4.3
2016-May-16 21:33N 34°38' E 135°20'4 3.7
2016-May-16 20:31N 34°39' E 135°24'0 0.0
2016-May-16 19:24N 34°39' E 135°24'0 0.0
2016-May-16 18:25N 34°39' E 135°24'0 0.0
2016-May-16 17:28N 34°39' E 135°24'0 0.0
2016-May-16 16:33N 34°39' E 135°24'0 0.0
2016-May-16 15:33N 34°39' E 135°24'0 0.1
2016-May-16 14:31N 34°39' E 135°24'0 0.1
2016-May-16 13:29N 34°39' E 135°24'0 0.0
2016-May-16 12:22N 34°39' E 135°24'0 0.0
2016-May-16 11:28N 34°39' E 135°24'0 0.0
2016-May-16 10:28N 34°39' E 135°24'0 0.0
2016-May-16 09:27N 34°39' E 135°24'0 0.0
2016-May-16 08:27N 34°39' E 135°24'0 0.0
2016-May-16 07:26N 34°39' E 135°24'0 0.0
2016-May-16 06:26N 34°39' E 135°24'0 0.0
2016-May-16 04:25N 34°39' E 135°24'0 0.1
2016-May-16 03:25N 34°39' E 135°24'0 0.1
2016-May-16 02:28N 34°39' E 135°24'0 0.1
2016-May-16 01:28N 34°39' E 135°24'0 0.0
2016-May-16 00:27N 34°39' E 135°24'0 0.0
2016-May-15 23:27N 34°39' E 135°24'0 0.0
2016-May-15 22:14N 34°39' E 135°24'2 2.7
2016-May-15 21:33N 34°38' E 135°23'1413.8
2016-May-15 20:33N 34°28' E 135°11'1514.7
2016-May-15 19:33N 34°17' E 134°59'1514.8
2016-May-15 18:33N 34°03' E 134°56'  

Dump ship's entire track history